Time;durP1;ratioP1;P1;durP2;ratioP2;P2;SDS_P1;SDS_P2;PMS_P1;PMS_P2;Temp;Humidity;BMP_temperature;BMP_pressure;BME280_temperature;BME280_humidity;BME280_pressure;Samples;Min_cycle;Max_cycle;Signal;HPM_P1;HPM_P2
2023/01/14 00:01:11;;;;;;;32.35;20.17;;;;;;;2.75;97.09;93658.88;5008355;28;20103;-43
2023/01/14 00:03:37;;;;;;;36.13;23.08;;;;;;;2.73;96.91;93656.63;5010092;28;20056;-47
2023/01/14 00:06:03;;;;;;;30.85;19.33;;;;;;;2.86;96.61;93658.88;5009820;28;20092;-43
2023/01/14 00:08:29;;;;;;;34.88;21.23;;;;;;;2.90;95.64;93662.84;5007180;28;20026;-45
2023/01/14 00:10:55;;;;;;;32.10;19.10;;;;;;;2.59;96.98;93660.31;5007921;28;20017;-43
2023/01/14 00:13:21;;;;;;;41.97;24.58;;;;;;;2.59;98.06;93662.28;4999187;28;20107;-44
2023/01/14 00:15:55;;;;;;;45.55;27.02;;;;;;;2.57;97.67;93668.25;5007692;28;20505;-42
2023/01/14 00:18:21;;;;;;;48.63;29.17;;;;;;;2.56;97.88;93657.81;5008286;28;20670;-45
2023/01/14 00:21:01;;;;;;;46.28;26.73;;;;;;;2.51;98.92;93653.13;5005505;28;20057;-43
2023/01/14 00:23:28;;;;;;;46.05;24.25;;;;;;;2.57;98.95;93654.63;5010834;28;20037;-43
2023/01/14 00:25:53;;;;;;;49.63;28.15;;;;;;;2.70;98.32;93643.25;5007724;28;20528;-43
2023/01/14 00:28:19;;;;;;;40.38;24.42;;;;;;;2.66;98.21;93646.22;5007886;28;20022;-43
2023/01/14 00:30:45;;;;;;;39.97;23.95;;;;;;;2.80;97.27;93644.47;5008768;28;20028;-43
2023/01/14 00:33:10;;;;;;;38.60;22.10;;;;;;;2.67;97.23;93644.97;5006920;28;20022;-44
2023/01/14 00:35:36;;;;;;;35.47;21.17;;;;;;;2.65;97.77;93650.16;5007444;28;20128;-46
2023/01/14 00:38:01;;;;;;;50.22;22.42;;;;;;;2.68;98.51;93648.44;5008322;28;20875;-44
2023/01/14 00:40:27;;;;;;;50.72;29.48;;;;;;;2.69;98.15;93645.22;5007697;28;20022;-43
2023/01/14 00:42:52;;;;;;;62.20;34.55;;;;;;;2.60;98.35;93642.72;5005054;28;20502;-44
2023/01/14 00:45:17;;;;;;;53.47;30.40;;;;;;;2.71;98.08;93648.19;5006162;28;20524;-43
2023/01/14 00:47:43;;;;;;;40.47;22.48;;;;;;;2.67;97.29;93642.25;5008264;28;20520;-43
2023/01/14 00:50:10;;;;;;;31.65;20.80;;;;;;;2.63;97.61;93636.28;5006426;28;20026;-45
2023/01/14 00:52:35;;;;;;;28.05;17.92;;;;;;;2.79;97.21;93637.56;5006595;28;20505;-43
2023/01/14 00:55:01;;;;;;;35.00;20.42;;;;;;;2.58;97.06;93630.84;5006976;28;20058;-43
2023/01/14 00:57:26;;;;;;;46.63;24.90;;;;;;;2.43;98.85;93631.03;5009393;28;20030;-43
2023/01/14 00:59:52;;;;;;;49.47;29.40;;;;;;;2.61;98.27;93627.84;5006514;28;20087;-42
2023/01/14 01:02:17;;;;;;;53.85;30.25;;;;;;;2.60;98.16;93633.81;5005877;28;20025;-42
2023/01/14 01:04:43;;;;;;;53.30;28.77;;;;;;;2.63;97.86;93622.66;5015467;28;20021;-41
2023/01/14 01:07:09;;;;;;;49.78;25.65;;;;;;;2.50;97.73;93622.38;5007615;28;20021;-42
2023/01/14 01:09:34;;;;;;;44.83;26.23;;;;;;;2.67;97.58;93630.59;5011253;28;20032;-43
2023/01/14 01:12:00;;;;;;;42.80;25.63;;;;;;;2.44;98.12;93618.16;5003142;28;20030;-41
2023/01/14 01:14:25;;;;;;;34.42;21.13;;;;;;;2.30;99.46;93614.41;5005413;28;20837;-42
2023/01/14 01:16:51;;;;;;;39.33;22.58;;;;;;;2.26;99.67;93619.34;5005519;28;20030;-43
2023/01/14 01:19:16;;;;;;;38.08;21.65;;;;;;;2.25;100.00;93612.44;5005830;28;20494;-46
2023/01/14 01:21:42;;;;;;;33.75;21.75;;;;;;;2.22;100.00;93610.66;5007844;28;20092;-42
2023/01/14 01:24:07;;;;;;;38.33;22.45;;;;;;;2.27;100.00;93618.84;5009886;28;20037;-43
2023/01/14 01:26:33;;;;;;;30.15;19.10;;;;;;;2.30;100.00;93609.69;5007163;28;20057;-43
2023/01/14 01:28:58;;;;;;;29.48;17.20;;;;;;;2.30;100.00;93603.50;5014660;28;20024;-42
2023/01/14 01:31:25;;;;;;;34.15;13.90;;;;;;;2.32;100.00;93600.31;5007646;28;20053;-43
2023/01/14 01:33:50;;;;;;;23.02;13.93;;;;;;;2.45;100.00;93606.75;5007656;28;20103;-43
2023/01/14 01:36:21;;;;;;;15.93;11.65;;;;;;;2.53;99.60;93607.78;5014926;28;20049;-45
2023/01/14 01:38:47;;;;;;;14.75;10.52;;;;;;;2.58;98.87;93615.22;5006120;28;20504;-42
2023/01/14 01:41:21;;;;;;;25.38;15.32;;;;;;;2.57;99.33;93616.47;5006528;28;20521;-44
2023/01/14 01:44:12;;;;;;;36.05;21.42;;;;;;;2.61;99.79;93606.06;5003772;28;20030;-42
2023/01/14 01:46:38;;;;;;;34.78;21.08;;;;;;;2.46;99.11;93605.53;5003583;28;20026;-42
2023/01/14 01:49:26;;;;;;;39.40;23.38;;;;;;;2.61;98.10;93599.84;5005851;28;20040;-42
2023/01/14 01:52:01;;;;;;;35.95;21.77;;;;;;;2.53;98.09;93594.16;5002319;28;20044;-42
2023/01/14 01:54:30;;;;;;;47.47;27.05;;;;;;;2.44;98.82;93575.31;5005165;28;20030;-42
2023/01/14 01:56:56;;;;;;;44.67;25.80;;;;;;;2.60;98.26;93599.09;5004483;28;20153;-43
2023/01/14 01:59:24;;;;;;;53.15;27.15;;;;;;;2.72;98.02;93605.31;5005239;28;20049;-42
2023/01/14 02:01:51;;;;;;;38.55;22.92;;;;;;;2.76;97.01;93606.56;5006488;28;20041;-42
2023/01/14 02:04:17;;;;;;;44.97;25.40;;;;;;;2.84;96.62;93602.09;5011020;28;20044;-43
2023/01/14 02:06:42;;;;;;;45.28;25.90;;;;;;;2.63;97.30;93598.13;5008819;28;20033;-43
2023/01/14 02:09:08;;;;;;;39.83;25.58;;;;;;;2.48;98.27;93599.59;5008943;28;20037;-43
2023/01/14 02:11:39;;;;;;;46.30;26.05;;;;;;;2.53;98.94;93593.41;5004028;28;20045;-44
2023/01/14 02:14:10;;;;;;;43.38;26.70;;;;;;;2.42;99.41;93602.31;5004904;28;20022;-43
2023/01/14 02:16:41;;;;;;;38.60;22.52;;;;;;;2.34;100.00;93597.84;5005215;28;20068;-43
2023/01/14 02:19:12;;;;;;;32.65;20.10;;;;;;;2.38;100.00;93592.88;5005946;28;20033;-44
2023/01/14 02:21:44;;;;;;;38.88;22.63;;;;;;;2.41;100.00;93602.78;5005874;28;20505;-44
2023/01/14 02:24:36;;;;;;;33.75;21.23;;;;;;;2.46;100.00;93600.09;5003936;28;20026;-44
2023/01/14 02:27:17;;;;;;;33.00;20.90;;;;;;;2.40;100.00;93590.41;5002775;28;20041;-45
2023/01/14 02:29:54;;;;;;;28.98;17.42;;;;;;;2.42;100.00;93585.97;5004835;28;20665;-43
2023/01/14 02:32:33;;;;;;;31.15;20.95;;;;;;;2.52;100.00;93591.91;5005066;28;20034;-43
2023/01/14 02:35:14;;;;;;;36.10;21.23;;;;;;;2.63;99.69;93589.19;5011466;28;20045;-43
2023/01/14 02:37:45;;;;;;;35.17;22.02;;;;;;;2.59;99.53;93585.97;5003451;28;20038;-42
2023/01/14 02:40:24;;;;;;;38.03;21.95;;;;;;;2.39;99.82;93586.94;5002375;28;20058;-42
2023/01/14 02:45:42;;;;;;;;;;;;;;;2.26;100.00;93587.41;5003367;28;20072;-42
2023/01/14 02:48:08;;;;;;;32.35;18.60;;;;;;;2.25;100.00;93585.19;5005755;28;19920;-42
2023/01/14 02:50:34;;;;;;;35.90;23.25;;;;;;;2.36;100.00;93584.47;5004325;28;20033;-43
2023/01/14 02:53:07;;;;;;;35.90;20.50;;;;;;;2.29;100.00;93582.97;5001708;28;20098;-42
2023/01/14 02:55:35;;;;;;;31.45;18.75;;;;;;;2.33;99.97;93580.75;5006364;28;20046;-43
2023/01/14 02:58:19;;;;;;;29.83;18.70;;;;;;;2.18;99.14;93580.97;5009765;28;20034;-44
2023/01/14 03:00:57;;;;;;;72.95;26.58;;;;;;;2.10;99.83;93576.47;5010353;28;20116;-43
2023/01/14 03:03:34;;;;;;;48.35;25.60;;;;;;;1.98;100.00;93574.94;5011186;28;20029;-43
2023/01/14 03:06:11;;;;;;;38.38;20.98;;;;;;;1.92;100.00;93572.22;5012227;28;20099;-43
2023/01/14 03:08:52;;;;;;;40.72;22.85;;;;;;;1.85;98.93;93563.75;5010524;28;20429;-43
2023/01/14 03:11:18;;;;;;;32.10;19.70;;;;;;;1.58;99.18;93573.31;5008826;28;20041;-43
2023/01/14 03:13:51;;;;;;;39.42;20.67;;;;;;;1.32;99.69;93573.41;5007585;28;20029;-43
2023/01/14 03:16:26;;;;;;;37.95;22.17;;;;;;;1.19;100.00;93572.34;5007998;28;20057;-42
2023/01/14 03:19:26;;;;;;;30.73;19.30;;;;;;;1.05;100.00;93556.94;5009120;28;20464;-42
2023/01/14 03:21:54;;;;;;;24.35;15.23;;;;;;;1.12;100.00;93568.09;4980893;28;20473;-43
2023/01/14 03:24:25;;;;;;;21.73;14.65;;;;;;;1.20;100.00;93574.59;5009408;28;20037;-41
2023/01/14 03:26:51;;;;;;;34.90;14.38;;;;;;;1.01;100.00;93570.75;5005123;28;20021;-42
2023/01/14 03:29:22;;;;;;;26.73;15.90;;;;;;;0.94;100.00;93573.16;5007645;28;20417;-41
2023/01/14 03:31:53;;;;;;;26.20;16.00;;;;;;;0.82;100.00;93558.75;5007872;28;20088;-45
2023/01/14 03:34:28;;;;;;;25.38;15.07;;;;;;;0.69;100.00;93572.72;5007927;28;20116;-43
2023/01/14 03:36:57;;;;;;;23.75;13.68;;;;;;;0.64;100.00;93569.97;5008954;28;20073;-42
2023/01/14 03:39:23;;;;;;;21.15;12.88;;;;;;;0.63;100.00;93577.38;5008552;28;20050;-43
2023/01/14 03:44:50;;;;;;;17.17;11.40;;;;;;;0.67;100.00;93594.19;4990448;28;20041;-43
2023/01/14 03:47:16;;;;;;;20.50;12.00;;;;;;;0.69;100.00;93582.88;5008143;28;20484;-43
2023/01/14 03:49:41;;;;;;;22.17;13.73;;;;;;;0.92;100.00;93578.34;5009501;28;20040;-43
2023/01/14 03:52:30;;;;;;;25.88;15.10;;;;;;;0.85;100.00;93571.38;5009855;28;20742;-43
2023/01/14 03:55:07;;;;;;;30.05;19.52;;;;;;;1.04;100.00;93583.38;5004514;28;20030;-45
2023/01/14 03:57:37;;;;;;;25.17;15.52;;;;;;;0.95;99.74;93578.13;5017677;28;20037;-43
2023/01/14 04:00:12;;;;;;;25.83;14.93;;;;;;;0.75;100.00;93581.69;5003594;28;20788;-43
2023/01/14 04:02:38;;;;;;;31.77;19.38;;;;;;;0.57;100.00;93587.44;4993640;28;20030;-43
2023/01/14 04:05:04;;;;;;;21.27;12.98;;;;;;;0.51;100.00;93585.91;5012230;28;20759;-44
2023/01/14 04:07:29;;;;;;;18.38;11.15;;;;;;;0.49;100.00;93585.66;5006608;28;20029;-42
2023/01/14 04:09:55;;;;;;;16.58;10.68;;;;;;;0.52;100.00;93580.00;5010787;28;20105;-41
2023/01/14 04:12:20;;;;;;;17.98;12.43;;;;;;;0.53;100.00;93586.19;5002883;28;20026;-41
2023/01/14 04:17:30;;;;;;;22.58;12.85;;;;;;;0.83;100.00;93583.94;5002564;28;20118;-42
2023/01/14 04:19:55;;;;;;;27.60;16.88;;;;;;;0.93;100.00;93588.00;5006939;28;20410;-42
2023/01/14 04:22:20;;;;;;;39.40;20.15;;;;;;;0.90;100.00;93591.66;5007170;28;20034;-42
2023/01/14 04:24:46;;;;;;;35.40;19.25;;;;;;;1.06;100.00;93589.06;5007839;28;20049;-42
2023/01/14 04:27:11;;;;;;;36.72;22.83;;;;;;;1.03;100.00;93589.28;5007180;28;20017;-41
2023/01/14 04:29:37;;;;;;;101.78;47.33;;;;;;;0.97;99.51;93580.34;5008522;28;20026;-41
2023/01/14 04:32:02;;;;;;;42.90;24.02;;;;;;;1.15;99.04;93588.88;5007281;28;20021;-41
2023/01/14 04:34:28;;;;;;;36.22;22.40;;;;;;;1.13;98.98;93588.63;5007700;28;20046;-42
2023/01/14 04:36:53;;;;;;;35.83;21.63;;;;;;;1.07;99.05;93592.53;5007446;28;20041;-41
2023/01/14 04:39:19;;;;;;;37.25;22.35;;;;;;;0.82;100.00;93585.19;5007208;28;20044;-41
2023/01/14 04:44:28;;;;;;;23.38;16.45;;;;;;;0.73;100.00;93595.00;5003788;28;20072;-42
2023/01/14 04:46:54;;;;;;;30.48;17.30;;;;;;;0.77;100.00;93583.91;5007015;28;20506;-42
2023/01/14 04:49:19;;;;;;;31.17;18.13;;;;;;;0.97;100.00;93591.97;5008167;28;20036;-43
2023/01/14 04:51:44;;;;;;;40.95;22.13;;;;;;;0.74;100.00;93588.34;5007791;28;20029;-42
2023/01/14 04:54:10;;;;;;;37.42;22.15;;;;;;;0.71;100.00;93592.00;5013516;28;20034;-42
2023/01/14 04:56:35;;;;;;;37.75;22.10;;;;;;;1.01;100.00;93586.31;5006629;28;20095;-42
2023/01/14 04:59:01;;;;;;;43.42;23.33;;;;;;;0.98;99.65;93589.97;5007311;28;20088;-43
2023/01/14 05:01:28;;;;;;;41.35;25.10;;;;;;;0.84;99.90;93588.16;5006353;28;20100;-42
2023/01/14 05:03:58;;;;;;;41.25;26.15;;;;;;;1.03;100.00;93590.03;5009225;28;20108;-42
2023/01/14 05:06:24;;;;;;;45.30;27.60;;;;;;;1.13;100.00;93590.59;5007589;28;20036;-42
2023/01/14 05:08:50;;;;;;;58.28;29.58;;;;;;;1.18;99.47;93598.78;5007368;28;20108;-43
2023/01/14 05:11:15;;;;;;;69.22;33.50;;;;;;;1.14;98.50;93583.94;5007928;28;20057;-43
2023/01/14 05:13:40;;;;;;;51.70;31.08;;;;;;;1.06;98.00;93583.63;5010252;28;20029;-42
2023/01/14 05:16:06;;;;;;;47.63;27.52;;;;;;;1.06;98.28;93583.63;5006776;28;20801;-44
2023/01/14 05:18:32;;;;;;;47.35;27.35;;;;;;;1.06;98.23;93593.78;5006567;28;20391;-42
2023/01/14 05:20:57;;;;;;;58.17;33.50;;;;;;;1.07;97.81;93584.38;5006749;28;20025;-43
2023/01/14 05:23:22;;;;;;;52.25;29.90;;;;;;;0.90;97.94;93586.22;5006440;28;20033;-43
2023/01/14 05:25:50;;;;;;;47.70;28.85;;;;;;;0.92;98.52;93589.97;5006891;28;20084;-41
2023/01/14 05:28:16;;;;;;;55.00;30.95;;;;;;;0.92;98.15;93589.22;5006150;28;20105;-42
2023/01/14 05:30:42;;;;;;;49.83;28.67;;;;;;;0.75;99.17;93587.13;5005642;28;20507;-43
2023/01/14 05:33:08;;;;;;;48.53;29.75;;;;;;;0.73;99.62;93586.09;5005469;28;20034;-44
2023/01/14 05:35:34;;;;;;;48.13;30.02;;;;;;;0.69;100.00;93594.47;5005285;28;20096;-41
2023/01/14 05:37:59;;;;;;;44.92;28.45;;;;;;;0.78;100.00;93586.13;5005391;28;20029;-41
2023/01/14 05:40:25;;;;;;;47.90;29.25;;;;;;;0.69;100.00;93591.75;5003119;28;20026;-41
2023/01/14 05:45:37;;;;;;;45.88;27.38;;;;;;;0.57;100.00;93598.31;5004683;28;20036;-41
2023/01/14 05:48:04;;;;;;;47.90;29.23;;;;;;;0.59;100.00;93589.69;5004475;28;20049;-42
2023/01/14 05:50:29;;;;;;;57.78;35.33;;;;;;;0.57;100.00;93597.56;5004810;28;20033;-42
2023/01/14 05:52:55;;;;;;;58.25;32.28;;;;;;;0.57;100.00;93606.47;5008327;28;20512;-42
2023/01/14 05:55:20;;;;;;;38.67;21.60;;;;;;;0.64;100.00;93608.00;5006608;28;20075;-44
2023/01/14 05:57:46;;;;;;;32.90;21.60;;;;;;;0.64;100.00;93600.63;5006755;28;20029;-45
2023/01/14 06:06:20;;;;;;;37.55;19.17;;;;;;;0.81;100.00;93592.59;5006389;28;20029;-43
2023/01/14 06:08:06;;;;;;;50.05;26.50;;;;;;;1.11;100.00;93599.22;5003933;28;20030;-44
2023/01/14 06:10:36;;;;;;;38.67;21.67;;;;;;;1.17;100.00;93602.72;5007545;28;20032;-43
2023/01/14 06:13:03;;;;;;;31.23;15.45;;;;;;;1.26;99.42;93591.66;5004627;28;20108;-43
2023/01/14 06:15:39;;;;;;;18.45;13.35;;;;;;;1.19;99.61;93596.81;5005233;28;20057;-45
2023/01/14 06:18:09;;;;;;;375.75;118.85;;;;;;;1.10;100.00;93602.44;5008677;28;20448;-44
2023/01/14 06:20:38;;;;;;;149.00;56.80;;;;;;;1.22;100.00;93601.28;5009874;28;20520;-43
2023/01/14 06:23:04;;;;;;;91.63;46.90;;;;;;;1.21;100.00;93603.25;5005939;28;20030;-44
2023/01/14 06:25:31;;;;;;;65.95;37.38;;;;;;;1.20;100.00;93601.78;5001739;28;20080;-41
2023/01/14 06:27:57;;;;;;;59.40;35.28;;;;;;;1.16;99.70;93598.53;5001849;28;20117;-42
2023/01/14 06:30:23;;;;;;;50.15;28.88;;;;;;;1.12;100.00;93598.03;5002091;28;20030;-42
2023/01/14 06:32:48;;;;;;;40.75;24.88;;;;;;;1.09;99.81;93607.13;5001319;28;20045;-43
2023/01/14 06:35:14;;;;;;;33.17;19.95;;;;;;;1.20;99.51;93603.75;5002523;28;20050;-43
2023/01/14 06:37:43;;;;;;;29.48;17.77;;;;;;;1.47;99.66;93605.91;5005427;28;20030;-43
2023/01/14 06:40:09;;;;;;;29.08;18.08;;;;;;;1.77;97.52;93603.56;5011367;28;20036;-42
2023/01/14 06:42:34;;;;;;;26.38;17.05;;;;;;;1.66;97.36;93592.63;4998711;28;20077;-43
2023/01/14 06:45:00;;;;;;;38.35;22.60;;;;;;;1.63;97.33;93597.06;4998337;28;20773;-43
2023/01/14 06:47:25;;;;;;;37.20;22.77;;;;;;;1.41;98.34;93597.69;5003552;28;20906;-43
2023/01/14 06:49:51;;;;;;;55.60;30.05;;;;;;;1.36;98.66;93601.16;5000315;28;20536;-43
2023/01/14 06:52:16;;;;;;;61.55;32.13;;;;;;;1.25;99.16;93598.34;5006824;28;20037;-42
2023/01/14 06:54:42;;;;;;;61.63;32.13;;;;;;;1.33;99.58;93593.19;5008768;28;20034;-42
2023/01/14 06:57:07;;;;;;;52.47;29.77;;;;;;;1.59;98.90;93595.81;5008913;28;20030;-43
2023/01/14 06:59:32;;;;;;;49.50;27.40;;;;;;;1.52;97.16;93599.72;5009221;28;20072;-42
2023/01/14 07:01:58;;;;;;;49.15;26.85;;;;;;;1.45;97.94;93598.22;5008606;28;20037;-42
2023/01/14 07:04:23;;;;;;;36.03;23.48;;;;;;;1.49;98.34;93598.00;5009006;28;20040;-45
2023/01/14 07:06:49;;;;;;;34.00;19.27;;;;;;;1.69;98.20;93600.56;5009112;28;20112;-42
2023/01/14 07:09:15;;;;;;;30.73;16.85;;;;;;;1.99;96.37;93587.34;5009751;28;20042;-43
2023/01/14 07:11:42;;;;;;;33.78;19.92;;;;;;;2.33;94.75;93597.09;5010890;28;20036;-42
2023/01/14 07:14:07;;;;;;;27.70;16.27;;;;;;;2.41;94.44;93592.63;5008834;28;20057;-42
2023/01/14 07:16:33;;;;;;;26.73;14.80;;;;;;;2.46;94.16;93600.09;5005196;28;20038;-44
2023/01/14 07:18:58;;;;;;;24.90;16.35;;;;;;;2.94;93.50;93600.63;5008389;28;20506;-43
2023/01/14 07:21:24;;;;;;;38.88;24.55;;;;;;;3.31;91.56;93602.34;5006167;28;20037;-42
2023/01/14 07:23:50;;;;;;;30.58;18.05;;;;;;;3.64;90.27;93594.09;5007168;28;20529;-42
2023/01/14 07:26:17;;;;;;;27.35;16.33;;;;;;;3.93;88.55;93603.69;5007235;28;20046;-42
2023/01/14 07:28:42;;;;;;;17.70;12.52;;;;;;;4.01;86.73;93602.66;5005713;28;20030;-44
2023/01/14 07:31:08;;;;;;;18.73;11.82;;;;;;;4.18;86.26;93608.78;5005631;28;20084;-38
2023/01/14 07:33:34;;;;;;;20.83;12.40;;;;;;;4.13;86.26;93606.09;5009046;28;20037;-43
2023/01/14 07:36:00;;;;;;;19.13;13.05;;;;;;;4.17;86.41;93607.31;5006419;28;20056;-43
2023/01/14 07:38:25;;;;;;;27.02;16.65;;;;;;;4.06;86.37;93618.28;5008554;28;20026;-43
2023/01/14 07:40:52;;;;;;;17.55;12.25;;;;;;;4.12;86.67;93610.06;5008486;28;20715;-42
2023/01/14 07:43:18;;;;;;;15.32;10.73;;;;;;;4.16;87.06;93624.94;5006475;28;20099;-44
2023/01/14 07:45:44;;;;;;;21.75;12.00;;;;;;;4.20;87.06;93617.22;5007066;28;20465;-43
2023/01/14 07:48:09;;;;;;;20.55;11.25;;;;;;;4.14;87.27;93611.06;5005767;28;20025;-43
2023/01/14 07:50:35;;;;;;;16.85;10.20;;;;;;;3.91;87.19;93611.63;5004670;28;20561;-42
2023/01/14 07:53:00;;;;;;;16.80;9.77;;;;;;;3.54;89.86;93617.44;5004449;28;20100;-45
2023/01/14 07:55:26;;;;;;;49.58;30.25;;;;;;;3.70;89.51;93614.66;5007033;28;20041;-43
2023/01/14 07:57:52;;;;;;;24.30;15.00;;;;;;;3.52;90.96;93622.66;5007421;28;20124;-41
2023/01/14 08:00:18;;;;;;;26.33;13.50;;;;;;;3.47;92.45;93624.16;5007362;28;20034;-44
2023/01/14 08:02:44;;;;;;;15.48;9.48;;;;;;;3.59;92.34;93628.38;5006392;28;20173;-43
2023/01/14 08:05:09;;;;;;;21.90;15.77;;;;;;;3.26;93.41;93619.47;5006225;28;20029;-43
2023/01/14 08:07:36;;;;;;;22.17;13.75;;;;;;;3.43;94.07;93628.38;5007483;28;20034;-44
2023/01/14 08:10:02;;;;;;;21.55;12.85;;;;;;;3.67;93.35;93634.78;5006782;28;20048;-43
2023/01/14 08:12:30;;;;;;;12.15;9.02;;;;;;;3.46;93.17;93633.59;5006637;28;20025;-44
2023/01/14 08:14:55;;;;;;;16.17;10.45;;;;;;;3.65;94.06;93642.00;5003937;28;20453;-44
2023/01/14 08:17:21;;;;;;;15.93;10.15;;;;;;;3.89;92.28;93642.19;5004426;28;20030;-45
2023/01/14 08:19:46;;;;;;;21.02;12.60;;;;;;;3.84;92.85;93648.41;5004259;28;20513;-42
2023/01/14 08:22:12;;;;;;;17.35;11.20;;;;;;;4.16;91.53;93644.06;5006315;28;20026;-42
2023/01/14 08:24:39;;;;;;;15.60;8.32;;;;;;;4.22;90.92;93647.53;5006546;28;20088;-43
2023/01/14 08:27:04;;;;;;;11.77;8.10;;;;;;;4.08;91.02;93645.09;5003996;28;20670;-42
2023/01/14 08:29:30;;;;;;;18.27;11.13;;;;;;;4.17;91.52;93644.81;5006695;28;20034;-42
2023/01/14 08:31:55;;;;;;;14.45;10.35;;;;;;;4.47;90.75;93640.22;5006533;28;20060;-45
2023/01/14 08:34:22;;;;;;;14.77;11.02;;;;;;;4.63;89.63;93651.06;5010091;28;20053;-45
2023/01/14 08:36:48;;;;;;;17.50;11.43;;;;;;;4.82;88.99;93645.00;5009731;28;20030;-46
2023/01/14 08:39:14;;;;;;;18.52;11.40;;;;;;;5.02;87.97;93644.63;5006734;28;20033;-44
2023/01/14 08:41:39;;;;;;;18.90;12.45;;;;;;;5.02;88.42;93650.13;5006175;28;20028;-44
2023/01/14 08:44:05;;;;;;;17.35;12.10;;;;;;;5.08;88.38;93654.28;5003388;28;20560;-47
2023/01/14 08:46:31;;;;;;;19.92;12.35;;;;;;;5.09;87.27;93649.56;5004500;28;20056;-46
2023/01/14 08:48:56;;;;;;;16.52;10.15;;;;;;;5.17;86.69;93655.97;5003547;28;20060;-44
2023/01/14 08:51:26;;;;;;;15.98;9.57;;;;;;;5.25;85.88;93654.16;5004995;28;20034;-45
2023/01/14 08:53:55;;;;;;;14.23;9.88;;;;;;;5.37;85.70;93639.88;5005576;28;20030;-48
2023/01/14 08:56:20;;;;;;;14.50;9.10;;;;;;;5.60;85.15;93647.91;5008629;28;20140;-45
2023/01/14 08:58:46;;;;;;;16.65;8.40;;;;;;;5.71;84.52;93650.53;5005051;28;20156;-44
2023/01/14 09:01:12;;;;;;;15.50;9.75;;;;;;;5.86;83.54;93643.47;5005961;28;20068;-46
2023/01/14 09:03:38;;;;;;;18.38;11.63;;;;;;;5.93;83.41;93642.16;5006138;28;20033;-44
2023/01/14 09:06:09;;;;;;;23.63;13.75;;;;;;;6.02;82.67;93639.78;5006032;28;20095;-44
2023/01/14 09:17:09;;;;;;;15.30;10.77;;;;;;;6.78;79.68;93630.38;5005161;28;20053;-45
2023/01/14 09:19:56;;;;;;;17.95;12.68;;;;;;;6.65;79.47;93628.31;4997055;28;20087;-46
2023/01/14 09:22:27;;;;;;;17.30;10.45;;;;;;;6.91;78.05;93630.47;5000601;28;20045;-45
2023/01/14 09:24:52;;;;;;;11.48;7.82;;;;;;;6.81;77.96;93623.88;5000123;28;20025;-45
2023/01/14 09:27:19;;;;;;;9.70;8.40;;;;;;;6.98;76.03;93623.63;5001914;28;20064;-43
2023/01/14 09:29:44;;;;;;;9.30;6.75;;;;;;;6.51;78.06;93626.03;4999314;28;20506;-44
2023/01/14 09:32:11;;;;;;;7.38;5.38;;;;;;;6.52;75.35;93614.53;4998396;28;20022;-44
2023/01/14 09:34:41;;;;;;;11.18;7.88;;;;;;;6.58;76.87;93614.47;5001681;28;20056;-47
2023/01/14 09:37:08;;;;;;;7.88;5.57;;;;;;;6.65;76.27;93609.13;4998313;28;21251;-44
2023/01/14 09:39:33;;;;;;;8.23;5.97;;;;;;;6.68;74.34;93615.56;4997797;28;20080;-44
2023/01/14 09:42:03;;;;;;;6.15;4.40;;;;;;;6.75;74.78;93609.50;4998019;28;20583;-43
2023/01/14 09:44:29;;;;;;;6.93;4.90;;;;;;;6.75;73.28;93609.50;4999166;28;20880;-44
2023/01/14 09:46:54;;;;;;;12.30;7.30;;;;;;;6.69;75.63;93615.03;4999650;28;20041;-43
2023/01/14 09:49:24;;;;;;;9.93;7.95;;;;;;;6.54;77.26;93611.28;4999049;28;20032;-44
2023/01/14 09:52:08;;;;;;;13.20;8.75;;;;;;;6.46;77.57;93610.38;4999485;28;20033;-45
2023/01/14 09:55:13;;;;;;;9.57;7.22;;;;;;;6.56;77.45;93606.00;5003130;28;20034;-45
2023/01/14 09:57:55;;;;;;;20.13;12.07;;;;;;;6.52;78.63;93603.56;4998971;28;20457;-46
2023/01/14 10:00:24;;;;;;;17.38;11.63;;;;;;;6.38;79.83;93609.47;4998671;28;20105;-44
2023/01/14 10:03:01;;;;;;;20.00;11.05;;;;;;;6.49;79.28;93607.34;5001251;28;20053;-43
2023/01/14 10:05:28;;;;;;;16.55;10.57;;;;;;;6.41;78.85;93609.19;4998507;28;20042;-44
2023/01/14 10:07:56;;;;;;;18.25;14.63;;;;;;;6.36;78.71;93604.53;5002547;28;20033;-44
2023/01/14 10:10:35;;;;;;;24.23;15.90;;;;;;;6.33;78.83;93605.53;5005749;28;20030;-44
2023/01/14 10:13:04;;;;;;;21.90;15.88;;;;;;;6.46;78.69;93605.63;5007127;28;20029;-44
2023/01/14 10:15:38;;;;;;;24.60;16.98;;;;;;;6.26;79.31;93608.16;5006052;28;20041;-44
2023/01/14 10:18:21;;;;;;;30.95;22.27;;;;;;;6.31;78.81;93607.31;5005044;28;20030;-45
2023/01/14 10:20:59;;;;;;;17.35;11.98;;;;;;;6.39;78.35;93602.75;5004304;28;20034;-45
2023/01/14 10:23:28;;;;;;;17.98;11.65;;;;;;;6.43;78.80;93594.97;5002779;28;20425;-45
2023/01/14 10:25:55;;;;;;;19.98;16.10;;;;;;;6.52;78.25;93600.09;5006047;28;20116;-44
2023/01/14 10:28:28;;;;;;;11.23;8.32;;;;;;;6.55;77.33;93591.56;5007257;28;20084;-45
2023/01/14 10:30:54;;;;;;;12.88;10.32;;;;;;;6.40;76.44;93596.00;5007073;28;20034;-46
2023/01/14 10:33:21;;;;;;;14.00;9.20;;;;;;;6.61;75.61;93599.69;5004096;28;20037;-45
2023/01/14 10:36:00;;;;;;;19.30;9.55;;;;;;;6.51;77.47;93596.59;4999033;28;20053;-44
2023/01/14 10:38:26;;;;;;;9.52;6.25;;;;;;;6.67;77.03;93581.19;5013933;28;20073;-44
2023/01/14 10:40:55;;;;;;;6.35;4.93;;;;;;;6.99;73.78;93589.44;5000193;28;20049;-44
2023/01/14 10:43:32;;;;;;;9.55;6.97;;;;;;;7.11;72.43;93590.75;5001571;28;20472;-45
2023/01/14 10:45:58;;;;;;;11.73;6.38;;;;;;;6.93;72.25;93591.53;4999796;28;20033;-44
2023/01/14 10:48:25;;;;;;;8.02;6.00;;;;;;;6.84;72.03;93576.19;5002409;28;20454;-45
2023/01/14 10:50:51;;;;;;;9.77;6.28;;;;;;;7.00;72.64;93585.41;5005445;28;20111;-43
2023/01/14 10:53:24;;;;;;;9.45;7.15;;;;;;;7.32;72.99;93575.19;5005076;28;20822;-47
2023/01/14 10:55:58;;;;;;;7.28;5.30;;;;;;;7.59;71.24;93580.22;5001591;28;20068;-45
2023/01/14 10:58:43;;;;;;;7.43;5.32;;;;;;;7.72;67.85;93573.97;4999644;28;20130;-44
2023/01/14 11:01:11;;;;;;;6.75;5.13;;;;;;;7.87;68.87;93562.47;5003568;28;20644;-42
2023/01/14 11:03:48;;;;;;;7.68;5.13;;;;;;;7.82;67.42;93561.28;5021214;28;20080;-42
2023/01/14 11:06:15;;;;;;;6.53;3.92;;;;;;;8.21;65.12;93566.03;5037888;28;20030;-43
2023/01/14 11:08:46;;;;;;;5.68;4.75;;;;;;;8.55;65.58;93560.63;5024105;28;20022;-42
2023/01/14 11:11:17;;;;;;;5.00;4.40;;;;;;;8.85;65.71;93549.94;5023878;28;20033;-43
2023/01/14 11:13:45;;;;;;;6.13;4.72;;;;;;;9.28;63.53;93554.94;5024651;28;20029;-43
2023/01/14 11:16:29;;;;;;;3.53;3.20;;;;;;;9.98;59.87;93553.66;5026856;28;20087;-42
2023/01/14 11:19:02;;;;;;;4.00;3.60;;;;;;;10.61;57.01;93550.13;5027198;28;20523;-43
2023/01/14 11:21:31;;;;;;;5.10;3.72;;;;;;;11.09;54.49;93536.63;5023254;28;20513;-43
2023/01/14 11:24:07;;;;;;;13.57;4.30;;;;;;;11.12;54.33;93535.53;5024804;28;20029;-42
2023/01/14 11:26:37;;;;;;;10.23;6.28;;;;;;;10.15;57.25;93537.41;5023273;28;20025;-43
2023/01/14 11:29:22;;;;;;;6.13;4.68;;;;;;;10.71;57.29;93541.31;5024547;28;20445;-43
2023/01/14 11:31:55;;;;;;;7.80;5.88;;;;;;;10.63;57.66;93525.47;5022981;28;20079;-43
2023/01/14 11:34:26;;;;;;;11.07;6.32;;;;;;;10.50;58.36;93531.13;5019092;28;20037;-43
2023/01/14 11:37:02;;;;;;;8.00;4.60;;;;;;;10.70;57.39;93531.59;5018516;28;20062;-42
2023/01/14 11:39:27;;;;;;;8.80;5.43;;;;;;;11.53;54.82;93532.44;5023443;28;20029;-44
2023/01/14 11:41:53;;;;;;;10.82;6.90;;;;;;;11.59;54.69;93523.94;5020754;28;20032;-44
2023/01/14 11:44:21;;;;;;;6.75;4.78;;;;;;;11.90;53.29;93523.41;5017825;28;20061;-43
2023/01/14 11:47:22;;;;;;;5.35;4.03;;;;;;;11.84;52.15;93525.66;5017499;28;20151;-44
2023/01/14 11:49:48;;;;;;;18.20;9.15;;;;;;;11.69;53.12;93524.91;5020635;28;20032;-43
2023/01/14 11:52:21;;;;;;;10.15;5.20;;;;;;;11.57;54.41;93523.78;5019336;28;20469;-44
2023/01/14 11:54:51;;;;;;;4.95;3.50;;;;;;;11.45;54.78;93531.72;5018542;28;20028;-42
2023/01/14 11:57:17;;;;;;;14.75;8.45;;;;;;;11.13;55.70;93537.03;5022167;28;20040;-42
2023/01/14 11:59:44;;;;;;;9.30;7.00;;;;;;;10.78;56.90;93527.56;5025512;28;20587;-43
2023/01/14 12:02:24;;;;;;;5.10;4.18;;;;;;;10.66;57.18;93534.69;5024568;28;20624;-43